Time;durP1;ratioP1;P1;durP2;ratioP2;P2;SDS_P1;SDS_P2;PMS_P1;PMS_P2;Temp;Humidity;BMP_temperature;BMP_pressure;BME280_temperature;BME280_humidity;BME280_pressure;Samples;Min_cycle;Max_cycle;Signal;HPM_P1;HPM_P2
2022/10/05 00:02:21;;;;;;;11.45;6.55;;;13.90;99.90;;;;;;5027056;28;20044;-44
2022/10/05 00:04:50;;;;;;;9.88;6.47;;;13.90;99.90;;;;;;5027141;28;20061;-44
2022/10/05 00:07:18;;;;;;;12.13;7.53;;;13.90;99.90;;;;;;5027133;28;20220;-45
2022/10/05 00:09:49;;;;;;;10.93;7.20;;;13.90;99.90;;;;;;5027553;28;20046;-44
2022/10/05 00:12:17;;;;;;;7.90;5.60;;;13.90;99.90;;;;;;5026984;28;20590;-44
2022/10/05 00:14:45;;;;;;;8.93;6.20;;;13.90;99.90;;;;;;5027815;28;20116;-43
2022/10/05 00:17:17;;;;;;;9.57;6.65;;;13.90;99.90;;;;;;5027325;28;20045;-44
2022/10/05 00:19:45;;;;;;;10.70;6.90;;;13.90;99.90;;;;;;5027714;28;20074;-43
2022/10/05 00:22:33;;;;;;;10.27;6.20;;;14.00;99.90;;;;;;5027564;28;20053;-45
2022/10/05 00:25:06;;;;;;;10.93;7.28;;;14.50;99.90;;;;;;5026907;28;20061;-44
2022/10/05 00:27:36;;;;;;;9.60;7.05;;;14.30;99.90;;;;;;5027278;28;20095;-44
2022/10/05 00:30:15;;;;;;;8.00;5.90;;;14.00;99.90;;;;;;5027046;28;20460;-43
2022/10/05 00:32:41;;;;;;;11.43;7.25;;;14.00;99.90;;;;;;5026944;28;20045;-44
2022/10/05 00:35:08;;;;;;;8.80;5.82;;;14.00;99.90;;;;;;5027103;28;20443;-44
2022/10/05 00:37:33;;;;;;;11.90;6.95;;;14.00;99.90;;;;;;5027724;28;20439;-45
2022/10/05 00:39:59;;;;;;;11.70;6.95;;;13.90;99.90;;;;;;5027884;28;20059;-43
2022/10/05 00:42:43;;;;;;;11.93;6.90;;;13.90;99.90;;;;;;5026647;28;20045;-44
2022/10/05 00:45:15;;;;;;;11.23;6.95;;;14.00;99.90;;;;;;5026996;28;20045;-42
2022/10/05 00:47:40;;;;;;;;;;;13.90;99.90;;;;;;5027391;28;20049;-43
2022/10/05 00:50:38;;;;;;;9.40;6.57;;;13.90;99.90;;;;;;5026702;28;19925;-44
2022/10/05 00:53:29;;;;;;;9.20;5.72;;;13.90;99.90;;;;;;5026595;28;20037;-44
2022/10/05 00:56:04;;;;;;;11.90;6.07;;;13.90;99.90;;;;;;4985853;28;20403;-44
2022/10/05 00:58:51;;;;;;;7.70;5.07;;;13.90;99.90;;;;;;5027073;28;20056;-43
2022/10/05 01:01:40;;;;;;;12.82;6.97;;;13.90;99.90;;;;;;5026807;28;20048;-43
2022/10/05 01:04:36;;;;;;;8.95;5.65;;;13.90;99.90;;;;;;5026090;28;20052;-43
2022/10/05 01:07:19;;;;;;;11.52;5.63;;;13.90;99.90;;;;;;5026826;28;20045;-44
2022/10/05 01:10:11;;;;;;;8.93;5.45;;;14.00;99.90;;;;;;5026999;28;20395;-43
2022/10/05 01:12:55;;;;;;;8.25;5.00;;;13.90;99.90;;;;;;4994986;28;20446;-43
2022/10/05 01:15:45;;;;;;;7.80;5.22;;;13.90;99.90;;;;;;5026476;28;20052;-44
2022/10/05 01:18:48;;;;;;;9.23;5.22;;;13.90;99.90;;;;;;5025865;28;20169;-48
2022/10/05 01:21:18;;;;;;;9.98;4.88;;;13.90;99.90;;;;;;5026266;28;20056;-43
2022/10/05 01:23:53;;;;;;;7.78;5.00;;;13.90;99.90;;;;;;5026447;28;20041;-43
2022/10/05 01:26:33;;;;;;;9.10;5.72;;;13.90;99.90;;;;;;5026009;28;20041;-43
2022/10/05 01:29:11;;;;;;;8.95;5.20;;;13.90;99.90;;;;;;5025850;28;20049;-43
2022/10/05 01:31:46;;;;;;;9.48;5.82;;;13.90;99.90;;;;;;5025964;28;20124;-44
2022/10/05 01:34:33;;;;;;;9.40;5.45;;;13.90;99.90;;;;;;5025431;28;20527;-43
2022/10/05 01:37:43;;;;;;;8.77;6.35;;;13.90;99.90;;;;;;5026542;28;20135;-43
2022/10/05 01:40:26;;;;;;;9.73;6.43;;;13.90;99.90;;;;;;5026484;28;20053;-43
2022/10/05 01:43:10;;;;;;;9.27;6.10;;;14.00;99.90;;;;;;5026256;28;20076;-43
2022/10/05 01:45:50;;;;;;;8.50;6.00;;;13.90;99.90;;;;;;5025312;28;20395;-43
2022/10/05 01:48:40;;;;;;;11.55;6.40;;;13.90;99.90;;;;;;5026242;28;20148;-43
2022/10/05 01:51:41;;;;;;;10.15;6.15;;;13.90;99.90;;;;;;5025965;28;20716;-42
2022/10/05 01:54:37;;;;;;;11.38;5.88;;;14.00;99.90;;;;;;5025774;28;20056;-43
2022/10/05 01:57:14;;;;;;;7.05;5.85;;;13.90;99.90;;;;;;5025896;28;20120;-43
2022/10/05 02:00:00;;;;;;;9.90;6.05;;;13.80;99.90;;;;;;5025984;28;20083;-44
2022/10/05 02:02:30;;;;;;;10.63;5.57;;;13.90;99.90;;;;;;5025731;28;20040;-43
2022/10/05 02:05:12;;;;;;;8.52;5.63;;;13.80;99.90;;;;;;5026041;28;20053;-43
2022/10/05 02:07:50;;;;;;;10.07;5.80;;;13.80;99.90;;;;;;5026063;28;20489;-43
2022/10/05 02:10:20;;;;;;;8.77;5.95;;;13.70;99.90;;;;;;5025920;28;20057;-43
2022/10/05 02:12:50;;;;;;;9.65;5.65;;;13.80;99.90;;;;;;5024993;28;20041;-44
2022/10/05 02:15:27;;;;;;;9.02;6.80;;;13.80;99.90;;;;;;5023375;28;20506;-43
2022/10/05 02:18:00;;;;;;;11.45;6.85;;;13.80;99.90;;;;;;5025497;28;20061;-44
2022/10/05 02:20:28;;;;;;;9.75;5.97;;;13.80;99.90;;;;;;5025530;28;20121;-44
2022/10/05 02:22:59;;;;;;;11.00;6.55;;;13.70;99.90;;;;;;5025527;28;20049;-42
2022/10/05 02:25:38;;;;;;;9.50;7.03;;;13.70;99.90;;;;;;5025072;28;20052;-42
2022/10/05 02:28:14;;;;;;;12.57;7.75;;;13.80;99.90;;;;;;5023904;28;20045;-42
2022/10/05 02:31:06;;;;;;;12.95;7.53;;;13.80;99.90;;;;;;5025641;28;20430;-44
2022/10/05 02:33:34;;;;;;;12.77;8.10;;;13.80;99.90;;;;;;5025797;28;20055;-43
2022/10/05 02:36:18;;;;;;;14.40;8.00;;;13.70;99.90;;;;;;5025866;28;20049;-43
2022/10/05 02:39:09;;;;;;;14.70;7.75;;;13.80;99.90;;;;;;5025327;28;20053;-44
2022/10/05 02:42:15;;;;;;;12.05;7.78;;;13.70;99.90;;;;;;5024786;28;20084;-44
2022/10/05 02:44:49;;;;;;;11.30;7.22;;;13.70;99.90;;;;;;5024929;28;20434;-43
2022/10/05 02:47:40;;;;;;;12.60;8.25;;;13.50;99.90;;;;;;5024636;28;20144;-44
2022/10/05 02:50:16;;;;;;;17.13;8.18;;;13.50;99.90;;;;;;5024857;28;20061;-44
2022/10/05 02:52:44;;;;;;;11.50;7.80;;;13.60;99.90;;;;;;5024483;28;20547;-43
2022/10/05 02:55:22;;;;;;;14.77;8.30;;;13.60;99.90;;;;;;5024255;28;20046;-43
2022/10/05 02:58:17;;;;;;;12.90;8.13;;;13.50;99.90;;;;;;5029096;28;20116;-44
2022/10/05 03:01:13;;;;;;;10.77;7.57;;;13.40;99.90;;;;;;5029245;28;20114;-44
2022/10/05 03:03:48;;;;;;;13.50;7.75;;;13.50;99.90;;;;;;4958073;28;20063;-43
2022/10/05 03:06:21;;;;;;;11.30;7.70;;;13.50;99.90;;;;;;5029497;28;20052;-44
2022/10/05 03:09:03;;;;;;;10.43;7.53;;;13.50;99.90;;;;;;5029017;28;20055;-45
2022/10/05 03:11:47;;;;;;;11.82;6.75;;;13.50;99.90;;;;;;5028159;28;20041;-43
2022/10/05 03:14:51;;;;;;;12.52;7.25;;;13.50;99.90;;;;;;5028359;28;20045;-43
2022/10/05 03:17:19;;;;;;;8.52;6.35;;;13.60;99.90;;;;;;5016067;28;20057;-43
2022/10/05 03:20:15;;;;;;;11.32;7.20;;;14.60;99.90;;;;;;5028799;28;20053;-44
2022/10/05 03:22:57;;;;;;;11.23;7.25;;;13.60;99.90;;;;;;5026955;28;20060;-43
2022/10/05 03:26:01;;;;;;;10.38;6.68;;;13.60;99.90;;;;;;5028658;28;20042;-43
2022/10/05 03:28:33;;;;;;;10.85;7.13;;;13.60;99.90;;;;;;5015617;28;20057;-43
2022/10/05 03:31:34;;;;;;;9.75;6.82;;;13.60;99.90;;;;;;5029014;28;20057;-44
2022/10/05 03:34:06;;;;;;;11.60;6.43;;;13.60;99.90;;;;;;5027948;28;20569;-43
2022/10/05 03:36:48;;;;;;;10.23;7.00;;;13.60;99.90;;;;;;5028070;28;20048;-43
2022/10/05 03:39:43;;;;;;;10.20;7.53;;;13.60;99.90;;;;;;5027685;28;20506;-43
2022/10/05 03:42:21;;;;;;;11.07;6.60;;;13.60;99.90;;;;;;5028296;28;20071;-43
2022/10/05 03:44:59;;;;;;;10.05;6.55;;;13.60;99.90;;;;;;5028812;28;20052;-44
2022/10/05 03:47:38;;;;;;;9.68;6.70;;;13.60;99.90;;;;;;5028439;28;20046;-43
2022/10/05 03:50:39;;;;;;;9.88;6.25;;;13.60;99.90;;;;;;5028497;28;20063;-43
2022/10/05 03:53:13;;;;;;;9.98;6.13;;;13.60;99.90;;;;;;5028295;28;20107;-43
2022/10/05 03:55:44;;;;;;;12.23;7.68;;;13.60;99.90;;;;;;5027667;28;20052;-43
2022/10/05 03:58:16;;;;;;;7.80;6.55;;;13.50;99.90;;;;;;5028130;28;20045;-43
2022/10/05 04:00:45;;;;;;;11.48;7.07;;;13.60;99.90;;;;;;5027937;28;20455;-43
2022/10/05 04:03:21;;;;;;;8.88;7.40;;;13.90;99.90;;;;;;5028055;28;20086;-43
2022/10/05 04:05:54;;;;;;;12.63;7.03;;;13.50;99.90;;;;;;5027989;28;20391;-44
2022/10/05 04:08:31;;;;;;;11.75;7.55;;;13.60;99.90;;;;;;5027687;28;20060;-43
2022/10/05 04:11:00;;;;;;;11.15;7.10;;;13.50;99.90;;;;;;5028232;28;20041;-43
2022/10/05 04:13:39;;;;;;;11.45;7.28;;;14.00;99.90;;;;;;5027806;28;20119;-44
2022/10/05 04:16:16;;;;;;;14.80;7.65;;;13.50;99.90;;;;;;5027544;28;20045;-43
2022/10/05 04:19:05;;;;;;;12.02;6.68;;;13.50;99.90;;;;;;5025336;28;20060;-44
2022/10/05 04:21:36;;;;;;;11.38;6.35;;;13.50;99.90;;;;;;4989864;28;20508;-43
2022/10/05 04:24:40;;;;;;;11.40;7.38;;;13.90;99.90;;;;;;5027662;28;20117;-43
2022/10/05 04:27:12;;;;;;;10.93;6.85;;;13.50;99.90;;;;;;5028057;28;20041;-43
2022/10/05 04:29:40;;;;;;;9.07;6.97;;;13.70;99.90;;;;;;5027589;28;20112;-44
2022/10/05 04:32:15;;;;;;;11.63;7.25;;;13.50;99.90;;;;;;5027540;28;20483;-45
2022/10/05 04:35:10;;;;;;;10.60;6.82;;;13.50;99.90;;;;;;5027405;28;20416;-43
2022/10/05 04:37:54;;;;;;;12.73;7.25;;;13.50;99.90;;;;;;5027429;28;20094;-43
2022/10/05 04:40:51;;;;;;;11.85;6.70;;;13.50;99.90;;;;;;5027575;28;20041;-45
2022/10/05 04:43:31;;;;;;;10.98;6.60;;;13.50;99.90;;;;;;5027815;28;20053;-43
2022/10/05 04:46:03;;;;;;;11.10;7.63;;;13.50;99.90;;;;;;5027140;28;20045;-43
2022/10/05 04:48:31;;;;;;;9.45;6.82;;;13.60;99.90;;;;;;5026635;28;20533;-45
2022/10/05 04:51:10;;;;;;;14.93;7.85;;;14.30;99.90;;;;;;5026773;28;20192;-43
2022/10/05 04:53:55;;;;;;;12.65;7.57;;;13.50;99.90;;;;;;5026719;28;20491;-42
2022/10/05 04:56:37;;;;;;;10.55;7.72;;;13.50;99.90;;;;;;5026932;28;20487;-45
2022/10/05 04:59:20;;;;;;;12.93;8.50;;;13.50;99.90;;;;;;5027088;28;20041;-43
2022/10/05 05:02:02;;;;;;;13.00;8.00;;;13.50;99.90;;;;;;5026979;28;20049;-44
2022/10/05 05:04:36;;;;;;;15.68;8.40;;;13.50;99.90;;;;;;5026787;28;20465;-43
2022/10/05 05:07:34;;;;;;;12.25;8.05;;;13.40;99.90;;;;;;5026475;28;20364;-44
2022/10/05 05:10:25;;;;;;;11.20;8.32;;;13.50;99.90;;;;;;5026043;28;20061;-43
2022/10/05 05:12:59;;;;;;;12.25;8.35;;;13.40;99.90;;;;;;5026517;28;20045;-44
2022/10/05 05:16:03;;;;;;;13.00;8.93;;;13.40;99.90;;;;;;5026780;28;20121;-44
2022/10/05 05:18:57;;;;;;;12.50;8.77;;;13.40;99.90;;;;;;5026577;28;20061;-43
2022/10/05 05:21:36;;;;;;;14.55;8.70;;;13.40;99.90;;;;;;5027004;28;20057;-43
2022/10/05 05:24:15;;;;;;;13.20;7.80;;;13.40;99.90;;;;;;5026492;28;20175;-44
2022/10/05 05:26:49;;;;;;;12.75;8.82;;;13.40;99.90;;;;;;5026442;28;20042;-43
2022/10/05 05:29:29;;;;;;;11.70;8.60;;;13.40;99.90;;;;;;5026397;28;20045;-43
2022/10/05 05:32:21;;;;;;;14.10;9.00;;;13.40;99.90;;;;;;5026712;28;20083;-43
2022/10/05 05:35:17;;;;;;;12.70;9.40;;;13.40;99.90;;;;;;5026332;28;20044;-44
2022/10/05 05:37:51;;;;;;;12.27;8.95;;;13.40;99.90;;;;;;5026658;28;20045;-43
2022/10/05 05:40:39;;;;;;;18.55;9.50;;;13.30;99.90;;;;;;5026821;28;20045;-44
2022/10/05 05:43:29;;;;;;;17.05;10.43;;;13.40;99.90;;;;;;5027225;28;20049;-43
2022/10/05 05:45:55;;;;;;;13.85;9.30;;;13.30;99.90;;;;;;5026803;28;20059;-43
2022/10/05 05:48:32;;;;;;;11.95;8.73;;;13.30;99.90;;;;;;5026675;28;20396;-43
2022/10/05 05:51:16;;;;;;;17.20;10.70;;;13.30;99.90;;;;;;5026614;28;20049;-43
2022/10/05 05:53:58;;;;;;;13.52;9.43;;;13.30;99.90;;;;;;5026307;28;20075;-43
2022/10/05 05:56:34;;;;;;;13.18;9.18;;;13.30;99.90;;;;;;5026164;28;20056;-43
2022/10/05 05:59:04;;;;;;;13.13;10.38;;;13.30;99.90;;;;;;5026220;28;20045;-44
2022/10/05 06:01:37;;;;;;;14.45;10.43;;;13.30;99.90;;;;;;5026314;28;20084;-43
2022/10/05 06:04:26;;;;;;;18.15;10.60;;;13.40;99.90;;;;;;5026512;28;20049;-43
2022/10/05 06:06:55;;;;;;;14.45;9.95;;;13.30;99.90;;;;;;5025540;28;20491;-43
2022/10/05 06:09:56;;;;;;;13.48;10.20;;;13.30;99.90;;;;;;5025903;28;20486;-43
2022/10/05 06:12:28;;;;;;;12.30;10.15;;;13.40;99.90;;;;;;4992019;28;20049;-45
2022/10/05 06:15:16;;;;;;;13.70;9.63;;;13.30;99.90;;;;;;5025515;28;20064;-44
2022/10/05 06:17:51;;;;;;;17.02;10.15;;;13.40;99.90;;;;;;5023680;28;20053;-43
2022/10/05 06:20:39;;;;;;;14.65;10.35;;;13.40;99.90;;;;;;5025259;28;20068;-43
2022/10/05 06:23:37;;;;;;;13.68;10.57;;;13.60;99.90;;;;;;5023989;28;20099;-44
2022/10/05 06:26:22;;;;;;;13.63;10.43;;;13.40;99.90;;;;;;5025422;28;20052;-43
2022/10/05 06:28:56;;;;;;;14.15;10.52;;;13.40;99.90;;;;;;5025329;28;20053;-44
2022/10/05 06:31:45;;;;;;;14.63;10.30;;;13.40;99.90;;;;;;5029677;28;20068;-44
2022/10/05 06:34:31;;;;;;;13.32;9.43;;;13.40;99.90;;;;;;5032580;28;20037;-44
2022/10/05 06:37:11;;;;;;;13.55;9.90;;;13.50;99.90;;;;;;5032543;28;20045;-43
2022/10/05 06:39:46;;;;;;;15.07;11.05;;;13.50;99.90;;;;;;5032681;28;20053;-44
2022/10/05 06:42:46;;;;;;;12.20;9.57;;;13.50;99.90;;;;;;5031628;28;20410;-43
2022/10/05 06:45:36;;;;;;;16.98;10.05;;;13.50;99.90;;;;;;5032591;28;20041;-44
2022/10/05 06:48:26;;;;;;;13.15;9.85;;;13.50;99.90;;;;;;5032209;28;20045;-43
2022/10/05 06:50:59;;;;;;;16.65;10.13;;;13.50;99.90;;;;;;5032504;28;20077;-43
2022/10/05 06:53:38;;;;;;;14.25;10.18;;;13.60;99.90;;;;;;5032579;28;20399;-43
2022/10/05 06:56:15;;;;;;;12.95;10.45;;;13.60;99.90;;;;;;5032549;28;20041;-43
2022/10/05 06:59:22;;;;;;;14.63;10.15;;;13.70;99.90;;;;;;5032752;28;20398;-44
2022/10/05 07:02:13;;;;;;;14.00;9.95;;;13.70;99.90;;;;;;4970497;28;20097;-44
2022/10/05 07:05:02;;;;;;;12.45;9.27;;;13.80;99.90;;;;;;5003279;28;20045;-44
2022/10/05 07:07:57;;;;;;;11.25;9.35;;;13.80;99.90;;;;;;5032130;28;20120;-43
2022/10/05 07:10:30;;;;;;;11.77;9.93;;;13.80;99.90;;;;;;5032230;28;20045;-43
2022/10/05 07:13:11;;;;;;;12.50;9.77;;;13.70;99.90;;;;;;5032383;28;20048;-44
2022/10/05 07:15:41;;;;;;;12.57;9.30;;;13.80;99.90;;;;;;5032525;28;20045;-44
2022/10/05 07:18:16;;;;;;;10.52;8.88;;;13.80;99.90;;;;;;5031853;28;20052;-44
2022/10/05 07:21:24;;;;;;;12.07;9.00;;;13.80;99.90;;;;;;5031749;28;20136;-43
2022/10/05 07:24:08;;;;;;;12.30;9.60;;;13.80;99.90;;;;;;5031878;28;20045;-44
2022/10/05 07:27:06;;;;;;;13.13;10.02;;;13.80;99.90;;;;;;5031629;28;20051;-45
2022/10/05 07:29:39;;;;;;;11.23;9.60;;;13.90;99.90;;;;;;5006618;28;20140;-44
2022/10/05 07:32:35;;;;;;;14.30;9.27;;;15.00;99.90;;;;;;5030053;28;20092;-44
2022/10/05 07:35:07;;;;;;;12.65;9.40;;;14.00;99.90;;;;;;5031459;28;20048;-45
2022/10/05 07:37:56;;;;;;;12.85;9.00;;;14.00;99.90;;;;;;5031262;28;20049;-44
2022/10/05 07:40:43;;;;;;;16.35;9.45;;;14.10;99.90;;;;;;5031340;28;20120;-43
2022/10/05 07:43:50;;;;;;;12.50;8.50;;;14.10;99.90;;;;;;5027746;28;20050;-44
2022/10/05 07:46:39;;;;;;;10.05;8.88;;;14.20;99.90;;;;;;5028521;28;20124;-43
2022/10/05 07:49:43;;;;;;;10.63;8.45;;;14.20;99.90;;;;;;5027521;28;20131;-43
2022/10/05 07:52:20;;;;;;;10.80;7.32;;;14.30;99.90;;;;;;5027658;28;20068;-43
2022/10/05 07:55:15;;;;;;;9.80;8.80;;;14.30;99.90;;;;;;5028492;28;20041;-44
2022/10/05 07:57:59;;;;;;;10.48;8.00;;;14.30;99.90;;;;;;5025586;28;20087;-44
2022/10/05 08:00:42;;;;;;;10.85;7.82;;;14.40;99.90;;;;;;5027961;28;20052;-43
2022/10/05 08:03:34;;;;;;;8.73;7.28;;;14.50;99.90;;;;;;5027424;28;20049;-44
2022/10/05 08:06:02;;;;;;;9.50;7.70;;;14.50;99.90;;;;;;5027775;28;20124;-43
2022/10/05 08:08:41;;;;;;;10.60;7.65;;;14.50;99.90;;;;;;5027645;28;20037;-44
2022/10/05 08:11:16;;;;;;;11.80;7.95;;;14.60;99.90;;;;;;5027431;28;20604;-43
2022/10/05 08:14:00;;;;;;;11.80;7.07;;;14.70;99.90;;;;;;5027858;28;20041;-43
2022/10/05 08:16:32;;;;;;;8.43;7.47;;;14.70;99.90;;;;;;5027699;28;20048;-43
2022/10/05 08:19:53;;;;;;;11.00;7.30;;;14.80;99.90;;;;;;5025529;28;20064;-44
2022/10/05 08:22:38;;;;;;;9.63;8.20;;;14.90;99.90;;;;;;5010263;28;20041;-44
2022/10/05 08:25:19;;;;;;;8.73;6.75;;;15.00;99.90;;;;;;5027728;28;20464;-44
2022/10/05 08:27:55;;;;;;;10.10;6.78;;;15.20;99.90;;;;;;5027607;28;20545;-46
2022/10/05 08:30:22;;;;;;;10.52;7.00;;;15.30;99.90;;;;;;5027413;28;20050;-44
2022/10/05 08:33:15;;;;;;;9.18;6.47;;;15.40;99.90;;;;;;5027427;28;20391;-44
2022/10/05 08:35:43;;;;;;;8.23;6.32;;;15.70;99.90;;;;;;5026681;28;20038;-44
2022/10/05 08:38:15;;;;;;;8.70;6.78;;;15.90;99.90;;;;;;5026066;28;20050;-44
2022/10/05 08:40:56;;;;;;;;;;;15.70;99.90;;;;;;5027378;28;20056;-45
2022/10/05 08:43:40;;;;;;;10.43;6.40;;;15.70;99.90;;;;;;5024698;28;20596;-45
2022/10/05 08:46:06;;;;;;;7.32;5.85;;;15.80;99.90;;;;;;5041840;28;20503;-40
2022/10/05 08:49:22;;;;;;;8.95;6.05;;;15.90;99.90;;;;;;5043947;28;20049;-41
2022/10/05 08:52:12;;;;;;;10.05;6.22;;;15.90;99.90;;;;;;5009917;28;20057;-40
2022/10/05 08:55:13;;;;;;;8.48;6.18;;;16.10;99.90;;;;;;5044327;28;20119;-42
2022/10/05 08:57:54;;;;;;;6.95;5.63;;;16.20;99.90;;;;;;5044208;28;20390;-41
2022/10/05 09:00:22;;;;;;;9.07;6.25;;;16.30;99.90;;;;;;5044384;28;20048;-41
2022/10/05 09:02:57;;;;;;;8.63;6.07;;;16.30;99.90;;;;;;5044192;28;20071;-40
2022/10/05 09:05:47;;;;;;;5.63;4.78;;;16.40;99.90;;;;;;5043943;28;20557;-42
2022/10/05 09:08:33;;;;;;;6.47;5.35;;;16.40;99.90;;;;;;5042045;28;20148;-41
2022/10/05 09:11:10;;;;;;;6.72;5.15;;;16.50;99.90;;;;;;5043064;28;20135;-42
2022/10/05 09:14:13;;;;;;;10.55;6.45;;;16.50;99.90;;;;;;5043860;28;20036;-44
2022/10/05 09:17:17;;;;;;;8.35;5.55;;;16.60;99.90;;;;;;5040506;28;20098;-54
2022/10/05 09:20:02;;;;;;;6.47;4.95;;;16.60;99.90;;;;;;5039614;28;20661;-47
2022/10/05 09:22:56;;;;;;;5.82;4.80;;;16.60;99.90;;;;;;5042066;28;20585;-44
2022/10/05 09:27:17;;;;;;;7.63;4.78;;;16.60;99.90;;;;;;5089866;27;20610;-41
2022/10/05 09:30:17;;;;;;;7.00;4.57;;;16.70;99.90;;;;;;5068125;28;20127;-41
2022/10/05 09:32:56;;;;;;;6.25;3.88;;;16.70;99.90;;;;;;5086763;28;22983;-41
2022/10/05 09:35:52;;;;;;;7.70;5.05;;;16.70;99.90;;;;;;5084808;28;20071;-46
2022/10/05 09:38:45;;;;;;;7.68;4.20;;;16.70;99.90;;;;;;5084444;28;20069;-42
2022/10/05 09:41:30;;;;;;;9.43;4.45;;;16.80;99.90;;;;;;5089093;28;20048;-41
2022/10/05 09:44:17;;;;;;;5.32;3.88;;;16.80;99.90;;;;;;5021197;28;20405;-41
2022/10/05 09:46:56;;;;;;;3.33;2.83;;;16.80;99.90;;;;;;5030958;28;20472;-43
2022/10/05 09:49:43;;;;;;;5.47;3.42;;;16.80;99.90;;;;;;5030678;28;20025;-56
2022/10/05 09:52:29;;;;;;;4.95;3.38;;;16.80;99.90;;;;;;5032300;28;20062;-55
2022/10/05 09:55:29;;;;;;;8.32;3.45;;;16.70;99.90;;;;;;4990608;28;20849;-56
2022/10/05 09:58:01;;;;;;;5.47;3.13;;;16.70;99.90;;;;;;5011457;28;20038;-53
2022/10/05 10:00:31;;;;;;;6.65;3.10;;;16.80;99.90;;;;;;5011688;28;20442;-45
2022/10/05 10:03:06;;;;;;;5.28;2.85;;;16.80;99.90;;;;;;5012923;28;20076;-49
2022/10/05 10:05:48;;;;;;;5.05;2.72;;;16.80;99.90;;;;;;5012564;28;20076;-54
2022/10/05 10:08:24;;;;;;;4.10;2.80;;;16.90;99.90;;;;;;5015912;28;20087;-52
2022/10/05 10:11:14;;;;;;;3.90;2.95;;;16.90;99.90;;;;;;5013440;28;20034;-47
2022/10/05 10:14:08;;;;;;;3.47;2.80;;;16.90;99.90;;;;;;5010153;28;20049;-50
2022/10/05 10:17:27;;;;;;;5.15;3.25;;;16.90;99.90;;;;;;5011357;28;20037;-55
2022/10/05 10:20:24;;;;;;;5.43;3.38;;;17.00;99.90;;;;;;4968650;28;20046;-48
2022/10/05 10:23:08;;;;;;;5.22;3.13;;;17.00;99.90;;;;;;4948919;28;20173;-48
2022/10/05 10:25:36;;;;;;;7.97;3.53;;;17.00;99.90;;;;;;5004636;28;20578;-48
2022/10/05 10:28:05;;;;;;;5.45;3.90;;;17.10;99.90;;;;;;5012241;28;20088;-49
2022/10/05 10:30:43;;;;;;;6.13;3.78;;;17.00;99.90;;;;;;5013216;28;20103;-49
2022/10/05 10:33:30;;;;;;;6.90;3.55;;;17.00;99.90;;;;;;5012034;28;20882;-50
2022/10/05 10:36:14;;;;;;;4.13;3.65;;;17.00;99.90;;;;;;5012930;28;20044;-53
2022/10/05 10:38:57;;;;;;;4.40;3.50;;;17.00;99.90;;;;;;4997941;28;20043;-53
2022/10/05 10:41:57;;;;;;;8.52;3.85;;;16.90;99.90;;;;;;4998620;28;20042;-58
2022/10/05 10:45:53;;;;;;;4.72;3.45;;;16.90;99.90;;;;;;5090330;27;20350;-55
2022/10/05 10:48:18;;;;;;;4.90;3.88;;;16.90;99.90;;;;;;5073283;28;20052;-58
2022/10/05 10:51:19;;;;;;;4.93;3.70;;;17.00;99.90;;;;;;5075378;28;20036;-56
2022/10/05 10:54:23;;;;;;;5.50;3.95;;;17.00;99.90;;;;;;5075711;28;20044;-55
2022/10/05 10:57:09;;;;;;;7.57;4.30;;;17.00;99.90;;;;;;5073362;28;20496;-45
2022/10/05 10:59:59;;;;;;;8.18;4.75;;;17.10;99.90;;;;;;5074119;28;20036;-41
2022/10/05 11:02:45;;;;;;;4.55;3.80;;;17.10;99.90;;;;;;5072391;28;20079;-42
2022/10/05 11:05:37;;;;;;;8.23;4.70;;;17.20;99.90;;;;;;5073641;28;20478;-41
2022/10/05 11:08:43;;;;;;;12.23;4.40;;;17.20;99.90;;;;;;5072559;28;20394;-41
2022/10/05 11:11:21;;;;;;;5.90;4.32;;;17.20;99.90;;;;;;5075785;28;20415;-51
2022/10/05 11:14:01;;;;;;;3.88;2.83;;;17.30;99.90;;;;;;5072883;28;20478;-41
2022/10/05 11:16:34;;;;;;;5.65;2.97;;;17.30;99.90;;;;;;5073769;28;20498;-39
2022/10/05 11:19:01;;;;;;;4.88;2.60;;;17.40;99.90;;;;;;5075117;28;20044;-43
2022/10/05 11:21:55;;;;;;;10.45;4.20;;;17.40;99.90;;;;;;5073254;28;20090;-42
2022/10/05 11:24:37;;;;;;;4.18;2.55;;;17.50;99.90;;;;;;5064173;28;20045;-55
2022/10/05 11:27:22;;;;;;;3.35;2.85;;;17.50;99.90;;;;;;5074242;28;20024;-43
2022/10/05 11:30:18;;;;;;;3.67;2.20;;;17.50;99.90;;;;;;5073880;28;20119;-42
2022/10/05 11:32:49;;;;;;;3.97;2.20;;;17.50;99.90;;;;;;5072712;28;20048;-43
2022/10/05 11:35:23;;;;;;;4.35;2.55;;;17.50;99.90;;;;;;5072959;28;20029;-45
2022/10/05 11:38:01;;;;;;;5.15;2.80;;;17.60;99.90;;;;;;5074206;28;20062;-42
2022/10/05 11:40:51;;;;;;;6.35;2.83;;;17.60;99.90;;;;;;5074632;28;20144;-42
2022/10/05 11:43:31;;;;;;;4.68;1.95;;;17.70;99.90;;;;;;5071534;28;20028;-42
2022/10/05 11:46:13;;;;;;;4.70;2.42;;;17.80;99.90;;;;;;5072627;28;20044;-42
2022/10/05 11:48:42;;;;;;;;;;;17.80;99.90;;;;;;5073832;28;20645;-43
2022/10/05 11:51:10;;;;;;;7.35;2.00;;;17.90;99.90;;;;;;5073409;28;19962;-41
2022/10/05 11:54:01;;;;;;;3.65;1.63;;;17.90;99.90;;;;;;5073477;28;20035;-43
2022/10/05 11:56:37;;;;;;;6.13;2.10;;;17.90;99.90;;;;;;5061295;28;20048;-44
2022/10/05 11:59:38;;;;;;;3.80;1.65;;;17.90;99.90;;;;;;5059393;28;20147;-43
2022/10/05 12:02:26;;;;;;;3.03;1.50;;;17.90;99.90;;;;;;5059906;28;20049;-45
2022/10/05 12:05:06;;;;;;;3.35;1.77;;;17.80;99.90;;;;;;5060620;28;20095;-41
2022/10/05 12:07:51;;;;;;;3.88;1.92;;;17.80;99.90;;;;;;5058047;28;20048;-41
2022/10/05 12:11:04;;;;;;;3.92;1.80;;;17.70;99.90;;;;;;5059437;28;20032;-42
2022/10/05 12:14:11;;;;;;;7.45;2.17;;;17.60;99.90;;;;;;5029478;28;20509;-42
2022/10/05 12:16:49;;;;;;;4.97;1.95;;;17.50;99.90;;;;;;5041367;28;20048;-44
2022/10/05 12:19:35;;;;;;;4.40;1.73;;;17.40;99.90;;;;;;5060391;28;20036;-40
2022/10/05 12:22:25;;;;;;;5.03;2.03;;;17.30;99.90;;;;;;5059411;28;20139;-43
2022/10/05 12:25:20;;;;;;;4.53;1.90;;;17.20;99.90;;;;;;5074873;28;20041;-42
2022/10/05 12:27:50;;;;;;;4.22;2.35;;;17.20;99.90;;;;;;5058947;28;20064;-45
2022/10/05 12:30:59;;;;;;;9.57;2.03;;;17.40;99.90;;;;;;5057780;28;20387;-47
2022/10/05 12:33:36;;;;;;;5.32;1.88;;;17.10;99.90;;;;;;5059824;28;20044;-42
2022/10/05 12:36:12;;;;;;;4.55;1.88;;;17.10;99.90;;;;;;5059917;28;20040;-45
2022/10/05 12:38:51;;;;;;;5.95;2.20;;;17.00;99.90;;;;;;5059839;28;20045;-43
2022/10/05 12:41:23;;;;;;;3.83;2.03;;;17.00;99.90;;;;;;5058803;28;20052;-41
2022/10/05 12:44:32;;;;;;;4.05;2.33;;;17.00;99.90;;;;;;5059312;28;20118;-42
2022/10/05 12:47:22;;;;;;;4.75;2.55;;;17.00;99.90;;;;;;5044387;28;20123;-45
2022/10/05 12:50:02;;;;;;;3.47;2.10;;;17.00;99.90;;;;;;5059661;28;20032;-41
2022/10/05 12:52:54;;;;;;;4.38;2.05;;;16.90;99.90;;;;;;5058620;28;20040;-44
2022/10/05 12:55:40;;;;;;;4.45;2.20;;;16.90;99.90;;;;;;5059465;28;20047;-42
2022/10/05 12:58:39;;;;;;;5.30;2.30;;;16.90;99.90;;;;;;5058875;28;20041;-42
2022/10/05 13:01:26;;;;;;;5.97;2.20;;;16.90;99.90;;;;;;5058990;28;20056;-42
2022/10/05 13:04:19;;;;;;;4.95;2.30;;;16.90;99.90;;;;;;5054786;28;20140;-42
2022/10/05 13:07:08;;;;;;;5.25;2.40;;;16.90;99.90;;;;;;5058637;28;20082;-41
2022/10/05 13:09:54;;;;;;;5.57;2.83;;;16.90;99.90;;;;;;5057765;28;20040;-41
2022/10/05 13:12:26;;;;;;;5.63;2.30;;;16.90;99.90;;;;;;5059010;28;20423;-40
2022/10/05 13:15:13;;;;;;;4.30;2.55;;;16.90;99.90;;;;;;5058906;28;20082;-42
2022/10/05 13:17:50;;;;;;;5.32;2.33;;;16.90;99.90;;;;;;5057416;28;20502;-42
2022/10/05 13:20:31;;;;;;;4.50;2.13;;;16.90;99.90;;;;;;5057480;28;20036;-42
2022/10/05 13:23:33;;;;;;;4.75;2.63;;;16.90;99.90;;;;;;5059283;28;20071;-41
2022/10/05 13:26:36;;;;;;;4.40;2.25;;;17.10;99.90;;;;;;5024224;28;20052;-43
2022/10/05 13:29:17;;;;;;;4.93;2.28;;;17.10;99.90;;;;;;5037686;28;20381;-46
2022/10/05 13:32:14;;;;;;;5.82;2.40;;;17.10;99.90;;;;;;5054716;28;20394;-44
2022/10/05 13:34:56;;;;;;;2.40;2.10;;;17.20;99.90;;;;;;5054863;28;20036;-45
2022/10/05 13:37:24;;;;;;;4.23;2.03;;;17.30;99.90;;;;;;5056974;28;20103;-40
2022/10/05 13:39:53;;;;;;;2.15;1.70;;;17.30;99.90;;;;;;5058821;28;20274;-39
2022/10/05 13:42:32;;;;;;;3.92;1.77;;;17.30;99.90;;;;;;5058884;28;20044;-41
2022/10/05 13:45:12;;;;;;;5.40;1.95;;;17.40;99.90;;;;;;5057766;28;20057;-48
2022/10/05 13:47:44;;;;;;;5.22;1.90;;;17.50;99.90;;;;;;5056251;28;20032;-41
2022/10/05 13:50:19;;;;;;;3.72;1.60;;;17.50;99.90;;;;;;5058766;28;20071;-41
2022/10/05 13:52:54;;;;;;;4.22;1.70;;;17.60;99.90;;;;;;5056295;28;20048;-40
2022/10/05 13:55:36;;;;;;;5.20;1.60;;;17.70;99.90;;;;;;5057884;28;20048;-42
2022/10/05 13:58:04;;;;;;;3.78;1.45;;;17.70;99.90;;;;;;5057738;28;20060;-41
2022/10/05 14:00:36;;;;;;;3.90;1.83;;;17.80;99.90;;;;;;5056716;28;20387;-41
2022/10/05 14:03:01;;;;;;;5.60;1.88;;;17.80;99.90;;;;;;5058173;28;20055;-44
2022/10/05 14:05:29;;;;;;;3.33;1.48;;;17.90;99.90;;;;;;5056614;28;20040;-43
2022/10/05 14:08:02;;;;;;;3.90;1.63;;;17.90;99.90;;;;;;5056194;28;20090;-41